Time;durP1;ratioP1;P1;durP2;ratioP2;P2;SDS_P1;SDS_P2;PMS_P1;PMS_P2;Temp;Humidity;BMP_temperature;BMP_pressure;BME280_temperature;BME280_humidity;BME280_pressure;Samples;Min_cycle;Max_cycle;Signal;HPM_P1;HPM_P2
2022/10/26 00:00:47;;;;;;;;;;;;;;;10.55;85.34;100694.75;6307678;22;19918;-79
2022/10/26 00:03:50;;;;;;;;;;;;;;;10.59;85.11;100696.28;6307544;22;19956;-79
2022/10/26 00:06:54;;;;;;;;;;;;;;;10.58;85.16;100690.22;6307667;22;19913;-79
2022/10/26 00:09:57;;;;;;;;;;;;;;;10.67;84.99;100691.53;6306328;22;19925;-79
2022/10/26 00:13:01;;;;;;;;;;;;;;;10.65;85.07;100690.75;6307331;22;19947;-79
2022/10/26 00:16:08;;;;;;;;;;;;;;;10.54;85.76;100677.38;6307505;22;19957;-78
2022/10/26 00:19:11;;;;;;;;;;;;;;;10.65;85.43;100669.81;6307663;22;19992;-79
2022/10/26 00:22:14;;;;;;;;;;;;;;;10.60;85.48;100666.63;6307305;22;19955;-79
2022/10/26 00:25:18;;;;;;;;;;;;;;;10.79;84.65;100662.16;6307395;22;19913;-79
2022/10/26 00:28:22;;;;;;;;;;;;;;;10.69;84.81;100672.22;6307155;22;19918;-79
2022/10/26 00:31:25;;;;;;;;;;;;;;;10.57;85.68;100670.22;6306741;22;19913;-79
2022/10/26 00:34:28;;;;;;;;;;;;;;;10.43;86.84;100667.44;6307308;22;20338;-79
2022/10/26 00:37:32;;;;;;;;;;;;;;;10.51;86.30;100669.69;6307239;22;19961;-79
2022/10/26 00:40:35;;;;;;;;;;;;;;;10.60;85.97;100677.06;6307282;22;19914;-79
2022/10/26 00:43:39;;;;;;;;;;;;;;;10.74;85.17;100682.44;6307480;22;19913;-79
2022/10/26 00:46:42;;;;;;;;;;;;;;;10.63;85.91;100690.00;6307456;22;20168;-79
2022/10/26 00:49:47;;;;;;;;;;;;;;;10.42;86.88;100690.13;6309437;22;19994;-79
2022/10/26 00:52:52;;;;;;;;;;;;;;;10.34;87.58;100687.03;6309198;22;19961;-79
2022/10/26 00:55:56;;;;;;;;;;;;;;;10.52;87.41;100684.44;6309158;22;19956;-79
2022/10/26 00:59:01;;;;;;;;;;;;;;;10.53;87.47;100688.72;6308700;22;20020;-79
2022/10/26 01:02:05;;;;;;;;;;;;;;;10.69;87.09;100687.91;6309393;22;19914;-79
2022/10/26 01:05:08;;;;;;;;;;;;;;;10.68;86.60;100691.44;6308455;22;19973;-79
2022/10/26 01:08:13;;;;;;;;;;;;;;;10.71;86.44;100680.81;6308817;22;20006;-79
2022/10/26 01:11:17;;;;;;;;;;;;;;;10.77;86.36;100682.28;6308720;22;19918;-79
2022/10/26 01:14:20;;;;;;;;;;;;;;;10.79;86.19;100688.31;6309301;22;19981;-79
2022/10/26 01:17:43;;;;;;;;;;;;;;;10.84;85.95;100686.28;6309136;22;19914;-79
2022/10/26 01:20:49;;;;;;;;;;;;;;;10.73;86.51;100688.59;6308824;22;19913;-79
2022/10/26 01:23:55;;;;;;;;;;;;;;;10.82;86.20;100676.84;6308975;22;20383;-79
2022/10/26 01:27:22;;;;;;;;;;;;;;;10.71;86.86;100679.97;6309096;22;19914;-79
2022/10/26 01:30:32;;;;;;;;;;;;;;;10.76;86.84;100685.84;6309097;22;19995;-79
2022/10/26 01:33:35;;;;;;;;;;;;;;;10.85;86.28;100677.53;6308894;22;19917;-79
2022/10/26 01:36:42;;;;;;;;;;;;;;;10.73;86.60;100662.44;6308807;22;19913;-79
2022/10/26 01:39:53;;;;;;;;;;;;;;;10.79;86.41;100667.38;6307703;22;20171;-79
2022/10/26 01:43:01;;;;;;;;;;;;;;;10.90;85.76;100651.13;6309069;22;19914;-79
2022/10/26 01:46:05;;;;;;;;;;;;;;;10.81;86.32;100644.59;6309022;22;19957;-79
2022/10/26 01:49:10;;;;;;;;;;;;;;;10.80;86.43;100645.53;6308645;22;19934;-79
2022/10/26 01:52:15;;;;;;;;;;;;;;;10.85;86.13;100651.38;6308639;22;19936;-79
2022/10/26 01:55:38;;;;;;;;;;;;;;;10.74;86.93;100668.53;6308587;22;20242;-79
2022/10/26 01:58:58;;;;;;;;;;;;;;;10.68;86.82;100667.06;6308517;22;19937;-79
2022/10/26 02:02:20;;;;;;;;;;;;;;;10.58;87.99;100673.69;6308727;22;19913;-79
2022/10/26 02:05:29;;;;;;;;;;;;;;;10.65;87.66;100680.28;6308472;22;19961;-79
2022/10/26 02:08:35;;;;;;;;;;;;;;;10.86;87.05;100673.97;6306953;22;19980;-79
2022/10/26 02:11:41;;;;;;;;;;;;;;;10.86;87.16;100668.75;6308647;22;19956;-79
2022/10/26 02:14:49;;;;;;;;;;;;;;;10.92;86.43;100671.06;6308630;22;19933;-79
2022/10/26 02:17:58;;;;;;;;;;;;;;;10.87;87.09;100664.34;6308597;22;20155;-79
2022/10/26 02:21:08;;;;;;;;;;;;;;;10.82;87.05;100664.59;6308508;22;20243;-79
2022/10/26 02:24:12;;;;;;;;;;;;;;;10.84;87.49;100656.66;6289346;22;19960;-79
2022/10/26 02:27:19;;;;;;;;;;;;;;;10.83;87.67;100645.34;6308594;22;20338;-79
2022/10/26 02:30:23;;;;;;;;;;;;;;;10.83;87.89;100650.59;6307601;22;19933;-79
2022/10/26 02:33:28;;;;;;;;;;;;;;;10.86;87.68;100641.75;6308244;22;19960;-79
2022/10/26 02:36:34;;;;;;;;;;;;;;;10.85;87.87;100647.91;6308046;22;19938;-79
2022/10/26 02:39:38;;;;;;;;;;;;;;;10.84;87.79;100639.19;6308433;22;19920;-79
2022/10/26 02:42:44;;;;;;;;;;;;;;;10.88;87.65;100640.75;6308520;22;19953;-79
2022/10/26 02:45:51;;;;;;;;;;;;;;;10.86;87.59;100632.13;6308596;22;20013;-79
2022/10/26 02:48:54;;;;;;;;;;;;;;;10.79;88.06;100641.22;6307970;22;19918;-79
2022/10/26 02:52:01;;;;;;;;;;;;;;;10.81;88.29;100636.75;6308112;22;19918;-79
2022/10/26 02:55:08;;;;;;;;;;;;;;;10.99;87.76;100631.50;6308431;22;20300;-79
2022/10/26 02:58:17;;;;;;;;;;;;;;;10.87;88.15;100639.03;6307040;22;19964;-79
2022/10/26 03:01:20;;;;;;;;;;;;;;;10.73;88.72;100636.31;6308118;22;20028;-79
2022/10/26 03:04:30;;;;;;;;;;;;;;;10.89;88.09;100631.13;6308168;22;19981;-79
2022/10/26 03:07:33;;;;;;;;;;;;;;;10.87;88.48;100633.81;6307883;22;19953;-79
2022/10/26 03:10:42;;;;;;;;;;;;;;;10.99;87.95;100634.09;6307885;22;19926;-79
2022/10/26 03:13:45;;;;;;;;;;;;;;;10.88;88.61;100632.03;6308159;22;19994;-79
2022/10/26 03:16:48;;;;;;;;;;;;;;;10.81;89.25;100620.19;6308035;22;19917;-79
2022/10/26 03:19:51;;;;;;;;;;;;;;;10.79;89.45;100630.75;6307792;22;19913;-79
2022/10/26 03:22:55;;;;;;;;;;;;;;;10.88;89.48;100627.66;6308185;22;20292;-79
2022/10/26 03:25:59;;;;;;;;;;;;;;;10.82;89.58;100635.00;6307818;22;19914;-79
2022/10/26 03:29:02;;;;;;;;;;;;;;;10.99;89.05;100626.25;6307973;22;20364;-79
2022/10/26 03:32:05;;;;;;;;;;;;;;;10.97;89.22;100612.41;6307775;22;20292;-79
2022/10/26 03:35:09;;;;;;;;;;;;;;;10.85;89.59;100612.13;6307669;22;20246;-79
2022/10/26 03:38:13;;;;;;;;;;;;;;;10.82;90.04;100619.28;6307836;22;20053;-79
2022/10/26 03:41:17;;;;;;;;;;;;;;;10.82;89.92;100612.28;6307788;22;19914;-79
2022/10/26 03:44:20;;;;;;;;;;;;;;;11.02;89.19;100615.63;6307783;22;19952;-79
2022/10/26 03:47:23;;;;;;;;;;;;;;;10.94;89.31;100619.50;6306862;22;19913;-79
2022/10/26 03:50:27;;;;;;;;;;;;;;;10.92;89.44;100618.72;6307688;22;19979;-79
2022/10/26 03:53:30;;;;;;;;;;;;;;;10.97;89.27;100623.72;6307907;22;19914;-79
2022/10/26 03:56:33;;;;;;;;;;;;;;;10.99;89.50;100618.41;6307753;22;19938;-79
2022/10/26 03:59:37;;;;;;;;;;;;;;;10.89;90.07;100623.28;6307794;22;20298;-79
2022/10/26 04:02:41;;;;;;;;;;;;;;;10.97;89.60;100612.41;6307639;22;19929;-79
2022/10/26 04:05:46;;;;;;;;;;;;;;;10.98;90.00;100609.72;6307276;22;19921;-79
2022/10/26 04:08:50;;;;;;;;;;;;;;;11.11;89.67;100604.69;6307422;22;20336;-79
2022/10/26 04:11:54;;;;;;;;;;;;;;;11.07;89.60;100605.75;6307721;22;19994;-79
2022/10/26 04:14:58;;;;;;;;;;;;;;;10.93;90.42;100612.56;6307564;22;20021;-79
2022/10/26 04:18:01;;;;;;;;;;;;;;;10.90;90.50;100612.72;6307250;22;19978;-79
2022/10/26 04:21:05;;;;;;;;;;;;;;;10.84;90.94;100607.81;6306712;22;20254;-79
2022/10/26 04:24:10;;;;;;;;;;;;;;;10.91;90.65;100613.56;6306083;22;19933;-79
2022/10/26 04:27:14;;;;;;;;;;;;;;;11.02;90.25;100615.63;6307657;22;20289;-79
2022/10/26 04:30:18;;;;;;;;;;;;;;;11.06;90.33;100611.91;6307281;22;19921;-78
2022/10/26 04:33:21;;;;;;;;;;;;;;;10.96;90.54;100615.94;6307343;22;20006;-79
2022/10/26 04:36:24;;;;;;;;;;;;;;;10.81;91.26;100618.44;6307627;22;19914;-79
2022/10/26 04:39:28;;;;;;;;;;;;;;;10.88;91.40;100609.34;6307697;22;20273;-79
2022/10/26 04:42:38;;;;;;;;;;;;;;;11.13;90.57;100603.66;6307443;22;20354;-79
2022/10/26 04:45:42;;;;;;;;;;;;;;;11.15;90.52;100606.19;6307446;22;20288;-79
2022/10/26 04:48:46;;;;;;;;;;;;;;;11.06;90.47;100601.44;6307182;22;19963;-79
2022/10/26 04:51:50;;;;;;;;;;;;;;;11.10;90.65;100600.34;6307520;22;19960;-79
2022/10/26 04:54:53;;;;;;;;;;;;;;;11.14;90.26;100594.06;6307943;22;19929;-79
2022/10/26 04:57:56;;;;;;;;;;;;;;;11.07;90.60;100592.66;6306359;22;20000;-79
2022/10/26 05:01:01;;;;;;;;;;;;;;;10.96;90.98;100600.25;6307308;22;19931;-79
2022/10/26 05:04:04;;;;;;;;;;;;;;;11.13;90.16;100597.56;6307393;22;19990;-79
2022/10/26 05:07:07;;;;;;;;;;;;;;;11.06;90.60;100591.81;6307535;22;20103;-79
2022/10/26 05:10:11;;;;;;;;;;;;;;;11.04;90.74;100582.38;6306051;22;19975;-79
2022/10/26 05:13:14;;;;;;;;;;;;;;;11.02;90.58;100599.94;6307169;22;20273;-79
2022/10/26 05:16:21;;;;;;;;;;;;;;;11.04;90.98;100598.06;6307322;22;19953;-79
2022/10/26 05:19:24;;;;;;;;;;;;;;;10.82;91.68;100591.38;6307446;22;19945;-78
2022/10/26 05:22:28;;;;;;;;;;;;;;;10.74;92.60;100595.28;6307056;22;20348;-79
2022/10/26 05:25:36;;;;;;;;;;;;;;;10.93;92.15;100607.31;6307156;22;20328;-79
2022/10/26 05:28:44;;;;;;;;;;;;;;;11.07;91.35;100592.66;6306956;22;20388;-79
2022/10/26 05:31:47;;;;;;;;;;;;;;;11.02;91.55;100595.53;6306826;22;19913;-79
2022/10/26 05:34:50;;;;;;;;;;;;;;;11.12;91.21;100596.75;6308266;22;19914;-79
2022/10/26 05:37:54;;;;;;;;;;;;;;;11.08;91.09;100597.00;6309206;22;20246;-79
2022/10/26 05:40:58;;;;;;;;;;;;;;;11.04;91.44;100590.22;6308969;22;19913;-79
2022/10/26 05:44:01;;;;;;;;;;;;;;;10.95;91.70;100599.41;6308852;22;19929;-78
2022/10/26 05:47:05;;;;;;;;;;;;;;;11.04;91.88;100603.28;6308473;22;19915;-79
2022/10/26 05:50:09;;;;;;;;;;;;;;;10.98;91.69;100598.41;6308991;22;19932;-79
2022/10/26 05:53:12;;;;;;;;;;;;;;;10.89;92.77;100597.97;6309093;22;20057;-79
2022/10/26 05:56:20;;;;;;;;;;;;;;;11.03;92.10;100604.22;6308778;22;19914;-79
2022/10/26 05:59:23;;;;;;;;;;;;;;;11.06;91.82;100607.53;6309174;22;19960;-79
2022/10/26 06:02:53;;;;;;;;;;;;;;;11.02;91.70;100600.78;6309024;22;20250;-79
2022/10/26 06:05:57;;;;;;;;;;;;;;;10.94;92.41;100597.69;6308707;22;20250;-79
2022/10/26 06:09:01;;;;;;;;;;;;;;;10.94;92.63;100601.19;6308355;22;20281;-79
2022/10/26 06:12:06;;;;;;;;;;;;;;;10.93;92.14;100601.25;6308531;22;20317;-79
2022/10/26 06:15:13;;;;;;;;;;;;;;;11.12;91.81;100611.59;6308478;22;19952;-79
2022/10/26 06:18:25;;;;;;;;;;;;;;;11.17;91.04;100614.81;6308958;22;19953;-79
2022/10/26 06:21:45;;;;;;;;;;;;;;;11.01;92.32;100619.16;6308468;22;19984;-79
2022/10/26 06:25:06;;;;;;;;;;;;;;;10.98;92.41;100628.03;6308209;22;20073;-79
2022/10/26 06:28:26;;;;;;;;;;;;;;;11.23;91.19;100631.97;6308472;22;20310;-79
2022/10/26 06:31:29;;;;;;;;;;;;;;;11.17;91.36;100648.84;6308577;22;20250;-79
2022/10/26 06:34:34;;;;;;;;;;;;;;;11.17;91.54;100646.22;6308726;22;20397;-79
2022/10/26 06:37:38;;;;;;;;;;;;;;;11.18;91.30;100637.44;6306738;22;19972;-79
2022/10/26 06:40:44;;;;;;;;;;;;;;;11.21;91.57;100642.53;6303777;22;19918;-78
2022/10/26 06:43:47;;;;;;;;;;;;;;;11.26;91.69;100657.97;6303223;22;20433;-79
2022/10/26 06:46:54;;;;;;;;;;;;;;;11.28;91.58;100670.06;6302206;22;19918;-79
2022/10/26 06:49:58;;;;;;;;;;;;;;;11.26;91.37;100664.03;6303330;22;19942;-79
2022/10/26 06:53:08;;;;;;;;;;;;;;;11.36;91.13;100654.78;6302552;22;19956;-79
2022/10/26 06:56:12;;;;;;;;;;;;;;;11.26;91.97;100658.81;6302565;22;20395;-79
2022/10/26 06:59:22;;;;;;;;;;;;;;;11.33;91.63;100668.06;6302452;22;20004;-79
2022/10/26 07:02:25;;;;;;;;;;;;;;;11.18;92.20;100669.69;6302554;22;19917;-79
2022/10/26 07:05:29;;;;;;;;;;;;;;;11.11;93.63;100672.72;6301450;22;19953;-79
2022/10/26 07:08:32;;;;;;;;;;;;;;;11.27;93.02;100678.00;6302236;22;20023;-79
2022/10/26 07:11:35;;;;;;;;;;;;;;;11.31;92.49;100680.38;6302382;22;19918;-79
2022/10/26 07:14:39;;;;;;;;;;;;;;;11.36;92.69;100680.97;6302267;22;20306;-79
2022/10/26 07:17:47;;;;;;;;;;;;;;;11.35;92.83;100683.66;6302756;22;19980;-79
2022/10/26 07:20:50;;;;;;;;;;;;;;;11.30;93.09;100681.31;6302301;22;19949;-78
2022/10/26 07:23:55;;;;;;;;;;;;;;;11.35;93.35;100692.34;6305195;22;19953;-78
2022/10/26 07:26:59;;;;;;;;;;;;;;;11.37;93.34;100703.59;6305907;22;20357;-79
2022/10/26 07:30:03;;;;;;;;;;;;;;;11.51;92.66;100700.25;6306654;22;20057;-79
2022/10/26 07:33:08;;;;;;;;;;;;;;;11.19;94.30;100701.94;6306755;22;19929;-78
2022/10/26 07:36:11;;;;;;;;;;;;;;;11.07;95.76;100698.22;6304704;22;20293;-78
2022/10/26 07:39:14;;;;;;;;;;;;;;;10.91;97.26;100700.75;6305960;22;19929;-77
2022/10/26 07:42:18;;;;;;;;;;;;;;;11.22;95.47;100707.03;6307215;22;19914;-78
2022/10/26 07:45:22;;;;;;;;;;;;;;;11.38;94.54;100712.31;6306563;22;19973;-79
2022/10/26 07:48:26;;;;;;;;;;;;;;;11.56;93.49;100718.34;6305983;22;20345;-79
2022/10/26 07:51:33;;;;;;;;;;;;;;;11.65;93.31;100717.84;6306266;22;19989;-79
2022/10/26 07:54:36;;;;;;;;;;;;;;;11.76;92.43;100715.50;6306081;22;19913;-78
2022/10/26 07:57:41;;;;;;;;;;;;;;;11.55;93.64;100725.38;6306475;22;19960;-79
2022/10/26 08:00:45;;;;;;;;;;;;;;;11.67;93.43;100729.09;6306480;22;19975;-79
2022/10/26 08:03:52;;;;;;;;;;;;;;;11.74;92.62;100722.59;6306634;22;19918;-79
2022/10/26 08:06:56;;;;;;;;;;;;;;;11.77;92.83;100718.94;6307273;22;20280;-79
2022/10/26 08:10:00;;;;;;;;;;;;;;;11.80;92.62;100726.66;6305520;22;19953;-79
2022/10/26 08:13:04;;;;;;;;;;;;;;;11.89;91.87;100727.97;6307354;22;20250;-79
2022/10/26 08:16:08;;;;;;;;;;;;;;;11.82;91.11;100728.25;6306046;22;19930;-79
2022/10/26 08:19:12;;;;;;;;;;;;;;;11.82;91.11;100724.81;6310474;22;19956;-79
2022/10/26 08:22:16;;;;;;;;;;;;;;;11.91;91.56;100736.59;6332685;22;19910;-78
2022/10/26 08:25:20;;;;;;;;;;;;;;;11.92;91.92;100728.63;6333611;22;19914;-79
2022/10/26 08:28:25;;;;;;;;;;;;;;;11.97;92.66;100720.53;6327660;22;19925;-79
2022/10/26 08:31:28;;;;;;;;;;;;;;;12.12;92.09;100718.84;6307337;22;19971;-79
2022/10/26 08:34:32;;;;;;;;;;;;;;;12.19;91.46;100723.66;6307559;22;20361;-78
2022/10/26 08:37:36;;;;;;;;;;;;;;;12.10;92.18;100716.31;6305101;22;19934;-79
2022/10/26 08:40:42;;;;;;;;;;;;;;;12.09;92.95;100722.47;6305773;22;19913;-79
2022/10/26 08:43:53;;;;;;;;;;;;;;;12.10;93.18;100745.13;6305734;22;20283;-79
2022/10/26 08:47:02;;;;;;;;;;;;;;;12.11;92.55;100736.34;6305903;22;19941;-78
2022/10/26 08:50:09;;;;;;;;;;;;;;;12.02;93.18;100745.53;6305613;22;19933;-79
2022/10/26 08:53:32;;;;;;;;;;;;;;;12.16;92.91;100742.19;6305568;22;19914;-78
2022/10/26 08:56:42;;;;;;;;;;;;;;;12.29;93.09;100732.69;6306460;22;19934;-79
2022/10/26 08:59:55;;;;;;;;;;;;;;;12.27;93.43;100734.56;6306229;22;19960;-79
2022/10/26 09:02:59;;;;;;;;;;;;;;;12.21;94.53;100753.25;6306622;22;20242;-79
2022/10/26 09:06:12;;;;;;;;;;;;;;;12.38;92.59;100743.59;6307113;22;19917;-78
2022/10/26 09:09:35;;;;;;;;;;;;;;;12.38;91.81;100740.97;6306811;22;20337;-79
2022/10/26 09:12:38;;;;;;;;;;;;;;;12.54;92.30;100747.06;6309023;22;19922;-79
2022/10/26 09:15:53;;;;;;;;;;;;;;;12.58;93.37;100738.06;6308695;22;19913;-79
2022/10/26 09:19:00;;;;;;;;;;;;;;;12.61;93.30;100758.03;6307144;22;19944;-79
2022/10/26 09:22:28;;;;;;;;;;;;;;;12.52;93.84;100752.38;6306886;22;20337;-79
2022/10/26 09:25:38;;;;;;;;;;;;;;;12.33;95.20;100759.59;6274093;22;19956;-78
2022/10/26 09:28:44;;;;;;;;;;;;;;;12.57;94.32;100768.72;6304530;22;19978;-78
2022/10/26 09:31:51;;;;;;;;;;;;;;;12.64;93.14;100763.97;6304003;22;19967;-78
2022/10/26 09:34:58;;;;;;;;;;;;;;;12.82;92.20;100761.19;6304331;22;19921;-78
2022/10/26 09:38:24;;;;;;;;;;;;;;;12.86;91.70;100767.94;6302502;22;20293;-78
2022/10/26 09:41:31;;;;;;;;;;;;;;;13.04;90.80;100766.88;6304293;22;19975;-79
2022/10/26 09:45:02;;;;;;;;;;;;;;;13.22;91.32;100768.44;6303753;22;19964;-78
2022/10/26 09:48:12;;;;;;;;;;;;;;;13.26;91.37;100777.00;6303803;22;20350;-79
2022/10/26 09:51:17;;;;;;;;;;;;;;;13.19;91.28;100771.25;6304109;22;20346;-79
2022/10/26 09:54:21;;;;;;;;;;;;;;;13.29;91.18;100775.97;6304727;22;19917;-79
2022/10/26 09:57:24;;;;;;;;;;;;;;;13.42;90.62;100776.94;6304302;22;19917;-79
2022/10/26 10:00:27;;;;;;;;;;;;;;;13.43;90.40;100776.84;6303621;22;19922;-79
2022/10/26 10:03:31;;;;;;;;;;;;;;;13.25;90.96;100776.16;6304138;22;19917;-79
2022/10/26 10:06:35;;;;;;;;;;;;;;;13.25;91.61;100778.78;6304097;22;19933;-79
2022/10/26 10:09:38;;;;;;;;;;;;;;;13.32;91.74;100784.53;6303799;22;20036;-79
2022/10/26 10:12:42;;;;;;;;;;;;;;;13.42;94.03;100792.69;6303980;22;19918;-79
2022/10/26 10:15:53;;;;;;;;;;;;;;;13.47;93.05;100785.41;6303921;22;19956;-79
2022/10/26 10:18:57;;;;;;;;;;;;;;;13.61;92.97;100795.06;6304506;22;19917;-79
2022/10/26 10:22:11;;;;;;;;;;;;;;;13.70;92.27;100802.38;6306206;22;20257;-79
2022/10/26 10:25:21;;;;;;;;;;;;;;;13.80;91.34;100807.94;6308473;22;19956;-79
2022/10/26 10:28:26;;;;;;;;;;;;;;;13.89;91.95;100808.22;6308451;22;19917;-79
2022/10/26 10:31:30;;;;;;;;;;;;;;;13.86;91.76;100807.56;6308403;22;20053;-79
2022/10/26 10:34:34;;;;;;;;;;;;;;;13.87;92.83;100809.22;6308291;22;19929;-79
2022/10/26 10:37:43;;;;;;;;;;;;;;;13.88;93.44;100811.78;6307772;22;19936;-79
2022/10/26 10:40:55;;;;;;;;;;;;;;;13.89;95.97;100813.47;6307095;22;19917;-79
2022/10/26 10:44:06;;;;;;;;;;;;;;;13.91;95.02;100813.34;6307876;22;20242;-78
2022/10/26 10:47:17;;;;;;;;;;;;;;;13.98;95.19;100821.72;6307800;22;19914;-79
2022/10/26 10:50:20;;;;;;;;;;;;;;;14.04;95.53;100822.19;6307968;22;19917;-79
2022/10/26 10:53:26;;;;;;;;;;;;;;;14.09;96.28;100824.53;6307603;22;19914;-79
2022/10/26 10:56:40;;;;;;;;;;;;;;;14.15;97.04;100827.63;6306849;22;19953;-80
2022/10/26 10:59:50;;;;;;;;;;;;;;;14.18;97.41;100816.91;6307735;22;20341;-80
2022/10/26 11:02:57;;;;;;;;;;;;;;;14.19;97.31;100815.97;6308234;22;20336;-79
2022/10/26 11:06:04;;;;;;;;;;;;;;;14.27;97.61;100814.66;6305766;22;19971;-80
2022/10/26 11:09:10;;;;;;;;;;;;;;;14.35;98.38;100825.53;6304203;22;19995;-80
2022/10/26 11:12:20;;;;;;;;;;;;;;;14.37;96.31;100821.03;6303487;22;19917;-80
2022/10/26 11:15:26;;;;;;;;;;;;;;;14.55;97.84;100826.91;6301576;22;19918;-80
2022/10/26 11:18:33;;;;;;;;;;;;;;;14.64;97.52;100821.06;6303620;22;20311;-80
2022/10/26 11:21:37;;;;;;;;;;;;;;;14.77;96.87;100813.22;6304613;22;20353;-80
2022/10/26 11:24:48;;;;;;;;;;;;;;;14.97;95.73;100818.03;6303165;22;19921;-80
2022/10/26 11:28:06;;;;;;;;;;;;;;;15.20;95.25;100818.28;6303099;22;19956;-80
2022/10/26 11:31:12;;;;;;;;;;;;;;;15.37;93.73;100819.78;6301956;22;19932;-80
2022/10/26 11:34:34;;;;;;;;;;;;;;;15.59;92.99;100818.22;6303075;22;19917;-79
2022/10/26 11:37:44;;;;;;;;;;;;;;;15.78;90.90;100811.72;6302974;22;19922;-79
2022/10/26 11:41:26;;;;;;;;;;;;;;;15.85;90.67;100820.88;6301817;22;19941;-79
2022/10/26 11:45:02;;;;;;;;;;;;;;;15.92;91.41;100819.53;6177727;23;19919;-79
2022/10/26 11:48:26;;;;;;;;;;;;;;;15.92;90.07;100816.88;6186546;22;20242;-80
2022/10/26 11:51:36;;;;;;;;;;;;;;;16.41;85.24;100815.19;6301532;22;19917;-79
2022/10/26 11:54:44;;;;;;;;;;;;;;;16.66;84.01;100814.25;6302841;22;19932;-80
2022/10/26 11:57:49;;;;;;;;;;;;;;;17.02;82.36;100817.78;6303049;22;20043;-80
2022/10/26 12:00:54;;;;;;;;;;;;;;;17.09;80.79;100809.28;6302890;22;19917;-80
2022/10/26 12:03:59;;;;;;;;;;;;;;;17.38;79.57;100819.44;6302818;22;19922;-79
2022/10/26 12:07:08;;;;;;;;;;;;;;;17.60;75.40;100823.94;6302708;22;19917;-79
2022/10/26 12:10:21;;;;;;;;;;;;;;;17.84;73.34;100818.59;6302663;22;19922;-79
2022/10/26 12:13:30;;;;;;;;;;;;;;;17.58;74.10;100820.56;6302239;22;19918;-79
2022/10/26 12:16:43;;;;;;;;;;;;;;;17.70;72.86;100832.84;6302057;22;19914;-80
2022/10/26 12:19:55;;;;;;;;;;;;;;;17.84;71.41;100843.25;6306133;22;19918;-80
2022/10/26 12:22:58;;;;;;;;;;;;;;;17.97;69.53;100842.28;6306182;22;19913;-80
2022/10/26 12:26:20;;;;;;;;;;;;;;;18.02;69.51;100846.25;6306148;22;19975;-80
2022/10/26 12:29:28;;;;;;;;;;;;;;;18.09;67.92;100852.75;6305622;22;19933;-80
2022/10/26 12:32:32;;;;;;;;;;;;;;;18.22;67.37;100844.69;6305574;22;19964;-80
2022/10/26 12:35:43;;;;;;;;;;;;;;;18.21;67.13;100848.28;6305718;22;19913;-80
2022/10/26 12:38:53;;;;;;;;;;;;;;;18.05;68.53;100845.16;6306109;22;19952;-80
2022/10/26 12:42:09;;;;;;;;;;;;;;;18.12;67.99;100849.88;6304443;22;20288;-80
2022/10/26 12:45:19;;;;;;;;;;;;;;;18.04;68.91;100849.63;6307335;22;20416;-80
2022/10/26 12:48:24;;;;;;;;;;;;;;;17.91;69.67;100863.94;6307974;22;19961;-80
2022/10/26 12:51:30;;;;;;;;;;;;;;;17.93;70.22;100862.00;6307653;22;19952;-80
2022/10/26 12:54:44;;;;;;;;;;;;;;;18.04;68.95;100859.38;6307989;22;19918;-80
2022/10/26 12:57:51;;;;;;;;;;;;;;;17.96;69.26;100862.59;6307589;22;19934;-79
2022/10/26 13:00:54;;;;;;;;;;;;;;;17.77;71.11;100857.03;6307731;22;19913;-80
2022/10/26 13:04:07;;;;;;;;;;;;;;;17.65;73.11;100857.00;6308169;22;19937;-80
2022/10/26 13:07:25;;;;;;;;;;;;;;;17.84;71.46;100856.47;6307921;22;19930;-79
2022/10/26 13:10:28;;;;;;;;;;;;;;;17.93;70.21;100868.13;6307589;22;20305;-80
2022/10/26 13:13:32;;;;;;;;;;;;;;;17.86;71.00;100856.34;6307074;22;19914;-79
2022/10/26 13:16:36;;;;;;;;;;;;;;;18.08;69.97;100858.16;6307554;22;19982;-80
2022/10/26 13:19:48;;;;;;;;;;;;;;;18.03;69.92;100869.09;6308293;22;19913;-80
2022/10/26 13:22:53;;;;;;;;;;;;;;;17.97;70.83;100876.69;6308422;22;19910;-79
2022/10/26 13:26:13;;;;;;;;;;;;;;;18.09;69.69;100873.94;6308680;22;19951;-80
2022/10/26 13:29:17;;;;;;;;;;;;;;;18.30;68.01;100878.47;6308648;22;19984;-79
2022/10/26 13:32:21;;;;;;;;;;;;;;;18.49;67.07;100876.06;6308763;22;19956;-80
2022/10/26 13:35:26;;;;;;;;;;;;;;;18.67;66.07;100881.69;6308453;22;19929;-80
2022/10/26 13:38:33;;;;;;;;;;;;;;;18.56;66.78;100874.59;6308707;22;19914;-79
2022/10/26 13:41:38;;;;;;;;;;;;;;;18.41;67.80;100877.63;6307843;22;19918;-80
2022/10/26 13:44:53;;;;;;;;;;;;;;;18.53;66.86;100885.41;6307392;22;19990;-80
2022/10/26 13:47:57;;;;;;;;;;;;;;;18.62;66.59;100890.97;6308493;22;20228;-79
2022/10/26 13:51:19;;;;;;;;;;;;;;;18.55;66.79;100887.97;6307616;22;19932;-80
2022/10/26 13:54:29;;;;;;;;;;;;;;;18.49;67.31;100891.09;6308292;22;19953;-80
2022/10/26 13:57:41;;;;;;;;;;;;;;;18.30;68.06;100883.78;6307996;22;19913;-80
2022/10/26 14:01:06;;;;;;;;;;;;;;;18.13;70.66;100895.69;6308639;22;19913;-80
2022/10/26 14:04:17;;;;;;;;;;;;;;;17.93;71.52;100881.34;6306685;22;19914;-80
2022/10/26 14:07:23;;;;;;;;;;;;;;;17.80;73.50;100889.38;6309595;22;19929;-80
2022/10/26 14:10:31;;;;;;;;;;;;;;;17.77;72.68;100889.66;6307013;22;20285;-80
2022/10/26 14:13:35;;;;;;;;;;;;;;;17.77;76.64;100896.72;6307764;22;19994;-79
2022/10/26 14:16:45;;;;;;;;;;;;;;;17.70;76.18;100908.69;6289792;22;19949;-78
2022/10/26 14:19:52;;;;;;;;;;;;;;;17.72;74.76;100907.63;6307793;22;20253;-78
2022/10/26 14:22:56;;;;;;;;;;;;;;;17.65;77.16;100914.34;6322450;22;19952;-79
2022/10/26 14:26:08;;;;;;;;;;;;;;;17.56;78.36;100907.13;6309157;22;20372;-79
2022/10/26 14:29:39;;;;;;;;;;;;;;;17.54;75.75;100914.31;6309145;22;19973;-79
2022/10/26 14:32:51;;;;;;;;;;;;;;;17.80;74.75;100925.59;6309209;22;19993;-79
2022/10/26 14:35:55;;;;;;;;;;;;;;;17.65;76.87;100931.06;6308967;22;20341;-80
2022/10/26 14:39:03;;;;;;;;;;;;;;;17.55;75.20;100926.56;6308712;22;19914;-79
2022/10/26 14:42:12;;;;;;;;;;;;;;;17.64;75.72;100920.56;6306201;22;19914;-80
2022/10/26 14:45:19;;;;;;;;;;;;;;;17.56;76.44;100928.25;6286393;22;19914;-79
2022/10/26 14:48:25;;;;;;;;;;;;;;;17.55;77.31;100930.06;6307067;22;20310;-79
2022/10/26 14:51:32;;;;;;;;;;;;;;;17.58;76.48;100934.25;6308725;22;20341;-79
2022/10/26 14:54:38;;;;;;;;;;;;;;;17.55;77.05;100942.41;6308544;22;19913;-79
2022/10/26 14:57:44;;;;;;;;;;;;;;;17.41;78.54;100946.94;6307896;22;20238;-79
2022/10/26 15:01:07;;;;;;;;;;;;;;;17.31;80.19;100951.22;6307892;22;19917;-79
2022/10/26 15:04:24;;;;;;;;;;;;;;;17.25;80.69;100951.69;6307542;22;19957;-79
2022/10/26 15:07:35;;;;;;;;;;;;;;;17.16;81.80;100957.63;6307687;22;19982;-79
2022/10/26 15:10:39;;;;;;;;;;;;;;;17.35;77.80;100955.31;6308285;22;19918;-79
2022/10/26 15:13:43;;;;;;;;;;;;;;;17.27;78.24;100959.50;6308791;22;19961;-79
2022/10/26 15:16:57;;;;;;;;;;;;;;;17.09;81.08;100959.03;6308140;22;20228;-79
2022/10/26 15:20:04;;;;;;;;;;;;;;;16.95;82.31;100968.81;6288988;22;19969;-79
2022/10/26 15:23:12;;;;;;;;;;;;;;;16.83;83.35;100966.22;6288473;22;20037;-79
2022/10/26 15:26:16;;;;;;;;;;;;;;;16.75;85.40;100974.66;6307900;22;19914;-79
2022/10/26 15:29:38;;;;;;;;;;;;;;;16.65;86.27;100974.44;6308210;22;19964;-79
2022/10/26 15:32:41;;;;;;;;;;;;;;;16.64;86.30;100985.13;6307703;22;19975;-79
2022/10/26 15:35:44;;;;;;;;;;;;;;;16.59;86.79;100989.88;6308191;22;20219;-79
2022/10/26 15:38:48;;;;;;;;;;;;;;;16.48;87.27;100999.38;6308239;22;19917;-79
2022/10/26 15:41:52;;;;;;;;;;;;;;;16.40;88.28;100999.09;6306697;22;19918;-79
2022/10/26 15:44:55;;;;;;;;;;;;;;;16.28;89.07;101002.56;6306900;22;19917;-79
2022/10/26 15:48:15;;;;;;;;;;;;;;;16.22;89.22;101013.53;6307266;22;19913;-78
2022/10/26 15:51:20;;;;;;;;;;;;;;;16.18;89.50;101012.06;6308091;22;20225;-79
2022/10/26 15:54:23;;;;;;;;;;;;;;;16.15;89.24;101022.81;6306800;22;20341;-78
2022/10/26 15:57:27;;;;;;;;;;;;;;;16.06;90.13;101023.44;6308280;22;19924;-78
2022/10/26 16:00:30;;;;;;;;;;;;;;;16.06;89.34;101015.53;6308267;22;19960;-79